الصفحة الرئيسية
METAR-TAF:

METAR-TAF

مطار :

بيونغيانغ, كوريا الشمالية

مطار سونان الدولي

دائرة عرض: 39-02N, خط طول: 125-47E, ارتفاع: 36 متر

METAR: مفقودة

زمن: 00:40 (16:10 UTC)

توقعات

تاريخ ووقت الإصدار 11ساعات و 40 دقيقة قبل الساعة 04:30UTC
التوقعات صالحة من22 الساعة 06 UTC إلى 23 الساعة 06 UTC
ريح 12 عقدة من الجنوب الشرقي
الرؤية 10 كم أو أكثر
ملبد بالغيوم على ارتفاع 2000 قدم
أصبح
من 22 الساعة 08 UTC إلى 22 الساعة 10 UTC
الرؤية: 4000 متر
ملبد بالغيوم على ارتفاع 1700 قدم
مطر

TAF: ZKPY 220430Z 2206/2306 14006MPS 9999 OVC020 BECMG 2208/2210 4000 RA OVC017 TX17/2205Z TN10/2222Z

أرصاد الطقس والتوقعات من أكثر من 4000 مطار (تقارير الطقس للمطار METAR والتنبؤ بالطقس بالمطارTAF).

المحطات المتاحة هي النقط الصفراء والحمراء على الخريطة.

حرك المؤشر فوق النقطة لمعرفة اسم المحطة.

ثم انقر لمعرفة أرصاد وتوقعات الطقس.

لتغيير الخارطة: اضغط على الأزرار الخضراء مع رمز الصليب الأسود للتكبير. على الزر الأخضر مع شرطة للتصغير، أو على الأسهم الخضراء للخرائط المجاورة.


METAR-TAF: